createdAt,value
2018-10-09T00:02:28.971Z,19.30
2018-10-09T00:04:58.419Z,19.43
2018-10-09T00:07:27.875Z,18.80
2018-10-09T00:09:57.387Z,18.43
2018-10-09T00:12:26.961Z,19.77
2018-10-09T00:14:56.283Z,19.70
2018-10-09T00:17:25.581Z,19.07
2018-10-09T00:19:55.097Z,19.43
2018-10-09T00:22:24.541Z,20.03
2018-10-09T00:24:53.905Z,19.00
2018-10-09T00:27:23.496Z,19.33
2018-10-09T00:29:53.046Z,17.73
2018-10-09T00:32:22.635Z,18.77
2018-10-09T00:34:52.002Z,20.43
2018-10-09T00:37:21.365Z,18.93
2018-10-09T00:39:50.762Z,20.93
2018-10-09T00:42:20.286Z,18.83
2018-10-09T00:44:49.687Z,18.80
2018-10-09T00:47:19.501Z,19.37
2018-10-09T00:49:48.826Z,20.03
2018-10-09T00:52:18.142Z,19.63
2018-10-09T00:54:47.667Z,20.33
2018-10-09T00:57:17.013Z,19.70
2018-10-09T00:59:46.562Z,19.97
2018-10-09T01:02:16.164Z,19.70
2018-10-09T01:04:45.391Z,19.23
2018-10-09T01:07:14.855Z,18.67
2018-10-09T01:09:44.198Z,18.93
2018-10-09T01:12:13.535Z,18.90
2018-10-09T01:14:43.000Z,21.37
2018-10-09T01:17:12.547Z,21.30
2018-10-09T01:19:42.140Z,20.17
2018-10-09T01:22:11.494Z,21.00
2018-10-09T01:24:41.003Z,20.03
2018-10-09T01:27:10.438Z,20.43
2018-10-09T01:29:39.799Z,19.90
2018-10-09T01:32:09.231Z,20.97
2018-10-09T01:34:38.783Z,19.50
2018-10-09T01:37:08.336Z,22.07
2018-10-09T01:39:37.806Z,20.10
2018-10-09T01:42:07.103Z,21.27
2018-10-09T01:44:36.422Z,18.97
2018-10-09T01:47:06.297Z,19.53
2018-10-09T01:49:35.724Z,20.17
2018-10-09T01:52:05.083Z,20.03
2018-10-09T01:54:34.483Z,21.07
2018-10-09T01:57:03.835Z,20.53
2018-10-09T01:59:33.210Z,20.67
2018-10-09T02:02:02.821Z,20.47
2018-10-09T02:04:32.359Z,20.63
2018-10-09T02:07:01.735Z,20.73
2018-10-09T02:09:31.208Z,20.50
2018-10-09T02:12:00.609Z,21.17
2018-10-09T02:14:30.030Z,21.37
2018-10-09T02:17:00.184Z,19.90
2018-10-09T02:19:29.742Z,20.17
2018-10-09T02:21:59.262Z,21.40
2018-10-09T02:24:28.692Z,21.27
2018-10-09T02:26:58.111Z,20.20
2018-10-09T02:29:27.613Z,20.83
2018-10-09T02:31:57.156Z,21.17
2018-10-09T02:34:27.104Z,20.83
2018-10-09T02:36:56.953Z,20.53
2018-10-09T02:39:26.388Z,20.60
2018-10-09T02:41:55.765Z,21.40
2018-10-09T02:44:25.285Z,21.03
2018-10-09T02:46:54.795Z,21.30
2018-10-09T02:49:24.389Z,20.63
2018-10-09T02:51:53.903Z,20.63
2018-10-09T02:54:23.352Z,22.07
2018-10-09T02:56:52.788Z,21.07
2018-10-09T02:59:22.258Z,21.63
2018-10-09T03:01:51.544Z,22.03
2018-10-09T03:04:21.153Z,23.47
2018-10-09T03:06:50.444Z,22.50
2018-10-09T03:09:20.002Z,23.73
2018-10-09T03:11:49.452Z,23.70
2018-10-09T03:14:18.930Z,24.07
2018-10-09T03:16:48.224Z,24.17
2018-10-09T03:19:17.770Z,27.87
2018-10-09T03:21:47.155Z,25.50
2018-10-09T03:24:16.652Z,23.57
2018-10-09T03:26:46.164Z,23.80
2018-10-09T03:29:15.929Z,25.47
2018-10-09T03:31:45.506Z,25.77
2018-10-09T03:34:16.141Z,25.23
2018-10-09T03:36:45.797Z,26.87
2018-10-09T03:39:15.559Z,24.40
2018-10-09T03:41:45.287Z,24.30
2018-10-09T03:44:14.742Z,23.90
2018-10-09T03:46:44.289Z,24.47
2018-10-09T03:49:13.854Z,25.53
2018-10-09T03:51:43.351Z,26.10
2018-10-09T03:54:13.869Z,25.67
2018-10-09T03:56:43.509Z,25.53
2018-10-09T03:59:13.225Z,25.50
2018-10-09T04:01:42.799Z,25.63
2018-10-09T04:04:12.811Z,26.50
2018-10-09T04:06:42.467Z,24.80
2018-10-09T04:09:15.151Z,25.63
2018-10-09T04:11:44.913Z,26.07
2018-10-09T04:14:14.511Z,25.30
2018-10-09T04:16:44.130Z,27.27
2018-10-09T04:19:13.730Z,25.70
2018-10-09T04:21:43.295Z,25.93
2018-10-09T04:24:12.934Z,25.40
2018-10-09T04:26:42.448Z,25.10
2018-10-09T04:29:12.484Z,27.67
2018-10-09T04:31:42.129Z,26.43
2018-10-09T04:34:11.701Z,25.83
2018-10-09T04:36:41.310Z,27.13
2018-10-09T04:39:11.159Z,26.70
2018-10-09T04:41:40.802Z,27.67
2018-10-09T04:44:10.465Z,28.23
2018-10-09T04:46:40.026Z,28.53
2018-10-09T04:49:09.583Z,28.67
2018-10-09T04:51:39.225Z,29.03
2018-10-09T04:54:08.910Z,30.07
2018-10-09T04:56:38.442Z,30.57
2018-10-09T04:59:08.393Z,31.93
2018-10-09T05:01:38.314Z,32.77
2018-10-09T05:04:08.814Z,32.97
2018-10-09T05:06:38.656Z,30.23
2018-10-09T05:09:11.070Z,29.83
2018-10-09T05:11:40.696Z,27.80
2018-10-09T05:14:10.222Z,26.40
2018-10-09T05:16:40.913Z,22.87
2018-10-09T05:19:10.615Z,21.57
2018-10-09T05:21:40.196Z,20.90
2018-10-09T05:24:10.029Z,21.03
2018-10-09T05:26:40.068Z,20.50
2018-10-09T05:29:09.763Z,21.30
2018-10-09T05:31:39.388Z,22.20
2018-10-09T05:34:09.018Z,19.53
2018-10-09T05:36:38.550Z,18.40
2018-10-09T05:39:09.056Z,18.80
2018-10-09T05:41:38.876Z,18.53
2018-10-09T05:44:08.555Z,18.43
2018-10-09T05:46:38.301Z,17.97
2018-10-09T05:49:08.129Z,19.27
2018-10-09T05:51:37.740Z,18.97
2018-10-09T05:54:07.486Z,19.80
2018-10-09T05:56:36.917Z,18.10
2018-10-09T05:59:07.517Z,18.53
2018-10-09T06:01:37.296Z,22.73
2018-10-09T06:04:07.039Z,21.47
2018-10-09T06:06:36.643Z,19.83
2018-10-09T06:09:08.393Z,19.87
2018-10-09T06:11:38.208Z,18.37
2018-10-09T06:14:08.185Z,22.90
2018-10-09T06:16:37.879Z,19.73
2018-10-09T06:19:07.488Z,18.23
2018-10-09T06:21:37.112Z,18.23
2018-10-09T06:24:06.857Z,19.33
2018-10-09T06:26:36.494Z,17.03
2018-10-09T06:29:06.245Z,17.57
2018-10-09T06:31:35.860Z,16.90
2018-10-09T06:34:06.285Z,17.43
2018-10-09T06:36:35.733Z,18.30
2018-10-09T06:39:06.685Z,18.67
2018-10-09T06:41:36.463Z,18.93
2018-10-09T06:44:06.422Z,19.53
2018-10-09T06:46:36.186Z,17.67
2018-10-09T06:49:05.876Z,19.03
2018-10-09T06:51:35.431Z,20.40
2018-10-09T06:54:05.298Z,20.00
2018-10-09T06:56:34.761Z,20.27
2018-10-09T06:59:05.465Z,21.57
2018-10-09T07:01:35.254Z,20.93
2018-10-09T07:04:04.969Z,21.07
2018-10-09T07:06:34.810Z,21.30
2018-10-09T07:09:05.322Z,22.00
2018-10-09T07:11:34.966Z,20.30
2018-10-09T07:14:04.705Z,21.67
2018-10-09T07:16:34.312Z,22.83
2018-10-09T07:19:04.039Z,21.70
2018-10-09T07:21:33.626Z,23.00
2018-10-09T07:24:03.106Z,21.57
2018-10-09T07:26:32.783Z,21.03
2018-10-09T07:29:02.475Z,20.17
2018-10-09T07:31:32.074Z,21.30
2018-10-09T07:34:01.860Z,22.87
2018-10-09T07:36:31.456Z,21.97
2018-10-09T07:39:01.202Z,22.70
2018-10-09T07:41:30.811Z,21.47
2018-10-09T07:44:00.540Z,20.73
2018-10-09T07:46:31.052Z,21.47
2018-10-09T07:49:00.853Z,20.87
2018-10-09T07:51:30.639Z,21.03
2018-10-09T07:54:00.366Z,20.33
2018-10-09T07:56:29.906Z,20.97
2018-10-09T07:58:59.571Z,21.73
2018-10-09T08:01:29.233Z,20.50
2018-10-09T08:03:59.854Z,21.40
2018-10-09T08:06:29.326Z,21.73
2018-10-09T08:08:58.956Z,20.50
2018-10-09T08:11:28.613Z,21.37
2018-10-09T08:13:58.370Z,21.07
2018-10-09T08:16:28.052Z,22.33
2018-10-09T08:18:58.113Z,20.47
2018-10-09T08:21:27.818Z,21.43
2018-10-09T08:23:57.519Z,21.27
2018-10-09T08:26:27.165Z,21.47
2018-10-09T08:28:56.671Z,20.40
2018-10-09T08:31:26.399Z,20.60
2018-10-09T08:33:56.950Z,19.53
2018-10-09T08:36:26.629Z,20.97
2018-10-09T08:38:56.040Z,19.63
2018-10-09T08:41:25.638Z,19.80
2018-10-09T08:43:55.270Z,17.97
2018-10-09T08:46:25.124Z,16.73
2018-10-09T08:48:55.599Z,17.83
2018-10-09T08:51:25.204Z,15.37
2018-10-09T08:53:54.867Z,14.77
2018-10-09T08:56:24.604Z,15.00
2018-10-09T08:58:54.285Z,15.03
2018-10-09T09:01:24.006Z,16.37
2018-10-09T09:03:53.717Z,15.50
2018-10-09T09:06:23.348Z,15.27
2018-10-09T09:08:53.187Z,15.47
2018-10-09T09:11:22.925Z,15.53
2018-10-09T09:13:52.495Z,15.20
2018-10-09T09:16:22.022Z,14.53
2018-10-09T09:18:51.545Z,15.80
2018-10-09T09:21:21.100Z,14.90
2018-10-09T09:23:50.695Z,14.57
2018-10-09T09:26:21.120Z,16.03
2018-10-09T09:28:50.714Z,15.03
2018-10-09T09:31:20.352Z,15.53
2018-10-09T09:33:49.988Z,15.20
2018-10-09T09:36:19.649Z,15.57
2018-10-09T09:38:49.310Z,15.13
2018-10-09T09:41:18.900Z,14.23
2018-10-09T09:43:48.510Z,14.37
2018-10-09T09:46:19.179Z,13.33
2018-10-09T09:48:48.686Z,13.07
2018-10-09T09:51:18.319Z,13.47
2018-10-09T09:53:47.802Z,14.07
2018-10-09T09:56:17.535Z,13.83
2018-10-09T09:58:47.280Z,13.83
2018-10-09T10:01:16.687Z,13.50
2018-10-09T10:03:46.322Z,14.60
2018-10-09T10:06:15.917Z,14.27
2018-10-09T10:08:45.607Z,13.53
2018-10-09T10:11:15.244Z,16.60
2018-10-09T10:13:44.821Z,12.87
2018-10-09T10:16:14.394Z,12.80
2018-10-09T10:18:44.274Z,13.20
2018-10-09T10:21:13.789Z,12.70
2018-10-09T10:23:46.383Z,12.27
2018-10-09T10:26:15.969Z,12.80
2018-10-09T10:28:45.534Z,13.13
2018-10-09T10:31:15.084Z,11.83
2018-10-09T10:33:44.651Z,13.40
2018-10-09T10:36:14.295Z,12.73
2018-10-09T10:38:43.898Z,12.17
2018-10-09T10:41:13.632Z,12.03
2018-10-09T10:43:44.124Z,12.27
2018-10-09T10:46:13.867Z,12.33
2018-10-09T10:48:56.317Z,12.33
2018-10-09T10:51:26.136Z,12.43
2018-10-09T10:53:56.130Z,12.07
2018-10-09T10:56:25.891Z,12.20
2018-10-09T10:58:55.486Z,12.40
2018-10-09T11:01:25.121Z,11.53
2018-10-09T11:03:55.181Z,12.83
2018-10-09T11:06:24.714Z,12.37
2018-10-09T11:08:54.464Z,12.97
2018-10-09T11:11:24.194Z,13.23
2018-10-09T11:13:53.784Z,13.30
2018-10-09T11:16:23.313Z,13.53
2018-10-09T11:18:54.042Z,14.30
2018-10-09T11:21:23.721Z,14.50
2018-10-09T11:23:53.169Z,12.80
2018-10-09T11:29:02.581Z,13.30
2018-10-09T11:31:32.115Z,13.70
2018-10-09T11:34:01.777Z,13.60
2018-10-09T11:36:31.421Z,13.60
2018-10-09T11:39:01.108Z,13.10
2018-10-09T11:41:30.862Z,14.30
2018-10-09T11:44:00.477Z,12.97
2018-10-09T11:46:30.235Z,13.97
2018-10-09T11:48:59.767Z,13.17
2018-10-09T11:51:29.268Z,13.30
2018-10-09T11:53:59.021Z,12.10
2018-10-09T11:56:29.576Z,11.73
2018-10-09T11:58:59.468Z,11.53
2018-10-09T12:01:29.143Z,10.77
2018-10-09T12:03:59.094Z,11.77
2018-10-09T12:06:28.802Z,11.93
2018-10-09T12:08:58.414Z,11.70
2018-10-09T12:11:28.009Z,12.30
2018-10-09T12:13:58.146Z,11.80
2018-10-09T12:16:27.719Z,11.57
2018-10-09T12:18:58.248Z,11.63
2018-10-09T12:21:27.865Z,11.63
2018-10-09T12:23:57.421Z,10.60
2018-10-09T12:26:27.082Z,10.80
2018-10-09T12:28:56.859Z,10.77
2018-10-09T12:31:26.331Z,10.97
2018-10-09T12:33:56.110Z,12.00
2018-10-09T12:36:26.006Z,11.20
2018-10-09T12:38:55.603Z,11.93
2018-10-09T12:41:25.388Z,11.53
2018-10-09T12:43:55.119Z,10.53
2018-10-09T12:46:24.738Z,11.13
2018-10-09T12:48:54.285Z,11.10
2018-10-09T12:51:23.951Z,10.90
2018-10-09T12:53:53.545Z,10.20
2018-10-09T12:56:23.144Z,10.53
2018-10-09T12:58:52.807Z,11.17
2018-10-09T13:01:22.248Z,9.80
2018-10-09T13:03:51.821Z,11.30
2018-10-09T13:06:21.476Z,12.30
2018-10-09T13:08:51.124Z,9.23
2018-10-09T13:11:20.773Z,10.83
2018-10-09T13:13:50.345Z,9.40
2018-10-09T13:16:19.792Z,10.03
2018-10-09T13:18:49.464Z,9.77
2018-10-09T13:21:19.277Z,10.10
2018-10-09T13:23:48.873Z,9.77
2018-10-09T13:26:18.425Z,9.50
2018-10-09T13:28:48.081Z,9.27
2018-10-09T13:31:17.774Z,9.57
2018-10-09T13:33:47.447Z,9.17
2018-10-09T13:36:17.911Z,12.13
2018-10-09T13:38:47.744Z,9.40
2018-10-09T13:41:21.340Z,9.17
2018-10-09T13:43:51.048Z,10.13
2018-10-09T13:46:20.722Z,9.07
2018-10-09T13:48:50.319Z,8.90
2018-10-09T13:51:19.798Z,9.30
2018-10-09T13:53:50.103Z,8.97
2018-10-09T13:56:19.641Z,8.73
2018-10-09T13:58:49.239Z,9.27
2018-10-09T14:01:18.864Z,9.03
2018-10-09T14:03:48.506Z,9.50
2018-10-09T14:06:18.070Z,8.23
2018-10-09T14:08:47.599Z,9.00
2018-10-09T14:11:17.306Z,8.87
2018-10-09T14:13:46.971Z,8.47
2018-10-09T14:16:16.612Z,10.00
2018-10-09T14:18:46.270Z,8.33
2018-10-09T14:21:15.701Z,8.13
2018-10-09T14:23:45.233Z,8.23
2018-10-09T14:26:14.890Z,8.70
2018-10-09T14:28:44.320Z,8.00
2018-10-09T14:31:13.767Z,7.97
2018-10-09T14:33:43.362Z,8.57
2018-10-09T14:36:13.305Z,8.77
2018-10-09T14:38:42.940Z,8.57
2018-10-09T14:41:12.564Z,7.70
2018-10-09T14:43:42.215Z,6.93
2018-10-09T14:46:11.862Z,7.60
2018-10-09T14:48:41.378Z,8.10
2018-10-09T14:51:11.108Z,7.33
2018-10-09T14:53:40.925Z,8.00
2018-10-09T14:56:10.525Z,7.83
2018-10-09T14:58:40.058Z,7.47
2018-10-09T15:01:09.830Z,8.23
2018-10-09T15:03:39.486Z,8.20
2018-10-09T15:06:09.820Z,8.27
2018-10-09T15:08:39.533Z,8.50
2018-10-09T15:11:09.077Z,8.30
2018-10-09T15:13:38.583Z,7.63
2018-10-09T15:16:08.269Z,8.17
2018-10-09T15:18:37.846Z,8.87
2018-10-09T15:21:08.013Z,7.83
2018-10-09T15:23:37.491Z,8.50
2018-10-09T15:26:06.995Z,8.07
2018-10-09T15:28:36.644Z,8.83
2018-10-09T15:31:06.167Z,8.67
2018-10-09T15:33:35.844Z,8.37
2018-10-09T15:36:05.684Z,9.27
2018-10-09T15:38:35.818Z,8.77
2018-10-09T15:41:05.395Z,9.20
2018-10-09T15:43:35.042Z,13.33
2018-10-09T15:46:04.829Z,13.60
2018-10-09T15:48:34.419Z,10.97
2018-10-09T15:51:04.024Z,9.90
2018-10-09T15:53:33.627Z,10.83
2018-10-09T15:56:03.203Z,9.37
2018-10-09T15:58:32.672Z,8.80
2018-10-09T16:01:02.376Z,10.53
2018-10-09T16:03:31.949Z,9.90
2018-10-09T16:06:01.491Z,10.67
2018-10-09T16:08:31.256Z,10.97
2018-10-09T16:11:00.902Z,10.83
2018-10-09T16:13:30.419Z,10.77
2018-10-09T16:15:59.981Z,9.93
2018-10-09T16:18:29.616Z,9.83
2018-10-09T16:20:59.198Z,9.57
2018-10-09T16:23:28.845Z,10.13
2018-10-09T16:25:58.438Z,9.90
2018-10-09T16:28:28.179Z,9.63
2018-10-09T16:30:57.744Z,10.17
2018-10-09T16:33:27.390Z,10.87
2018-10-09T16:35:57.023Z,12.80
2018-10-09T16:38:26.700Z,10.90
2018-10-09T16:40:56.283Z,9.60
2018-10-09T16:43:25.833Z,10.17
2018-10-09T16:45:55.486Z,10.93
2018-10-09T16:48:25.024Z,10.37
2018-10-09T16:50:54.725Z,9.93
2018-10-09T16:53:24.341Z,9.57
2018-10-09T16:55:53.851Z,9.83
2018-10-09T16:58:23.394Z,9.50
2018-10-09T17:00:52.952Z,8.47
2018-10-09T17:03:22.445Z,8.57
2018-10-09T17:05:52.051Z,9.10
2018-10-09T17:08:21.886Z,8.83
2018-10-09T17:10:51.448Z,8.37
2018-10-09T17:13:20.947Z,8.47
2018-10-09T17:15:50.517Z,10.73
2018-10-09T17:18:20.057Z,10.00
2018-10-09T17:20:49.555Z,8.87
2018-10-09T17:23:19.214Z,8.07
2018-10-09T17:25:48.734Z,7.53
2018-10-09T17:28:18.338Z,7.57
2018-10-09T17:30:47.916Z,9.57
2018-10-09T17:33:17.690Z,9.13
2018-10-09T17:35:47.258Z,8.13
2018-10-09T17:38:16.825Z,7.83
2018-10-09T17:40:46.588Z,7.93
2018-10-09T17:43:16.062Z,10.97
2018-10-09T17:45:45.533Z,7.83
2018-10-09T17:48:14.993Z,8.73
2018-10-09T17:50:44.582Z,8.63
2018-10-09T17:53:14.039Z,8.57
2018-10-09T17:55:43.467Z,7.87
2018-10-09T17:58:13.109Z,7.30
2018-10-09T18:00:42.799Z,9.07
2018-10-09T18:03:12.235Z,9.90
2018-10-09T18:05:41.692Z,8.73
2018-10-09T18:08:11.349Z,8.70
2018-10-09T18:10:41.014Z,14.73
2018-10-09T18:13:10.568Z,11.07
2018-10-09T18:15:40.110Z,8.50
2018-10-09T18:18:09.724Z,8.47
2018-10-09T18:20:39.289Z,8.07
2018-10-09T18:23:08.862Z,7.17
2018-10-09T18:25:38.368Z,8.27
2018-10-09T18:28:08.206Z,8.63
2018-10-09T18:30:37.837Z,8.20
2018-10-09T18:33:07.496Z,8.17
2018-10-09T18:35:37.131Z,8.60
2018-10-09T18:38:06.923Z,8.70
2018-10-09T18:40:36.565Z,10.00
2018-10-09T18:43:06.087Z,7.50
2018-10-09T18:45:35.741Z,9.17
2018-10-09T18:48:05.245Z,7.00
2018-10-09T18:50:34.911Z,7.60
2018-10-09T18:53:04.553Z,13.10
2018-10-09T18:55:34.057Z,27.73
2018-10-09T18:58:03.668Z,13.00
2018-10-09T19:00:33.312Z,13.27
2018-10-09T19:03:02.937Z,10.83
2018-10-09T19:05:32.574Z,11.90
2018-10-09T19:08:02.213Z,16.03
2018-10-09T19:10:31.956Z,11.47
2018-10-09T19:13:01.617Z,10.83
2018-10-09T19:15:31.178Z,11.17
2018-10-09T19:18:00.644Z,10.07
2018-10-09T19:20:30.248Z,11.03
2018-10-09T19:22:59.922Z,9.77
2018-10-09T19:25:29.551Z,11.00
2018-10-09T19:27:59.094Z,22.27
2018-10-09T19:30:28.810Z,10.60
2018-10-09T19:32:58.459Z,11.87
2018-10-09T19:35:27.892Z,11.30
2018-10-09T19:37:57.426Z,13.97
2018-10-09T19:40:27.032Z,14.60
2018-10-09T19:42:57.529Z,11.80
2018-10-09T19:45:27.020Z,13.37
2018-10-09T19:47:56.607Z,14.23
2018-10-09T19:50:26.183Z,15.17
2018-10-09T19:52:55.736Z,13.97
2018-10-09T19:55:25.381Z,12.90
2018-10-09T19:57:55.052Z,12.20
2018-10-09T20:00:24.707Z,13.23
2018-10-09T20:02:54.287Z,16.17
2018-10-09T20:05:23.821Z,23.53
2018-10-09T20:07:53.502Z,35.20
2018-10-09T20:10:23.037Z,19.57
2018-10-09T20:12:53.136Z,13.17
2018-10-09T20:15:22.749Z,11.77
2018-10-09T20:17:52.305Z,11.47
2018-10-09T20:20:21.924Z,13.00
2018-10-09T20:22:51.591Z,13.03
2018-10-09T20:25:21.088Z,12.90
2018-10-09T20:27:50.622Z,12.43
2018-10-09T20:30:20.188Z,13.00
2018-10-09T20:32:49.796Z,12.77
2018-10-09T20:35:19.086Z,13.70
2018-10-09T20:37:48.846Z,13.23
2018-10-09T20:40:18.349Z,12.20
2018-10-09T20:42:48.480Z,12.03
2018-10-09T20:45:18.046Z,12.47
2018-10-09T20:47:47.786Z,12.93
2018-10-09T20:50:17.573Z,14.20
2018-10-09T20:52:47.143Z,14.63
2018-10-09T20:55:16.751Z,13.33
2018-10-09T20:57:46.433Z,13.20
2018-10-09T21:00:16.036Z,13.67
2018-10-09T21:02:45.592Z,13.30
2018-10-09T21:05:16.019Z,13.47
2018-10-09T21:07:45.634Z,14.40
2018-10-09T21:10:15.191Z,14.73
2018-10-09T21:13:48.230Z,17.07
2018-10-09T21:16:17.696Z,14.53
2018-10-09T21:18:47.120Z,13.13
2018-10-09T21:21:16.799Z,13.97
2018-10-09T21:23:46.250Z,14.47
2018-10-09T21:26:15.814Z,15.27
2018-10-09T21:28:45.416Z,16.83
2018-10-09T21:31:14.973Z,16.07
2018-10-09T21:33:44.613Z,19.63
2018-10-09T21:36:14.135Z,16.60
2018-10-09T21:38:43.806Z,25.20
2018-10-09T21:41:13.378Z,15.60
2018-10-09T21:43:42.907Z,16.47
2018-10-09T21:46:12.451Z,16.70
2018-10-09T21:48:42.083Z,16.30
2018-10-09T21:51:11.618Z,16.13
2018-10-09T21:53:41.224Z,15.03
2018-10-09T21:56:10.804Z,14.77
2018-10-09T21:58:40.174Z,16.20
2018-10-09T22:01:09.857Z,14.53
2018-10-09T22:03:39.748Z,12.33
2018-10-09T22:06:09.714Z,11.83
2018-10-09T22:08:52.044Z,12.50
2018-10-09T22:11:21.660Z,16.27
2018-10-09T22:13:51.224Z,17.17
2018-10-09T22:16:20.844Z,12.03
2018-10-09T22:18:50.390Z,11.33
2018-10-09T22:21:19.880Z,11.40
2018-10-09T22:23:49.475Z,11.27
2018-10-09T22:26:19.071Z,11.13
2018-10-09T22:28:48.672Z,10.37
2018-10-09T22:31:18.286Z,11.60
2018-10-09T22:33:47.853Z,12.23
2018-10-09T22:36:17.425Z,13.00
2018-10-09T22:38:47.103Z,14.53
2018-10-09T22:41:16.760Z,13.80
2018-10-09T22:43:46.371Z,17.93
2018-10-09T22:46:15.878Z,13.97
2018-10-09T22:48:45.649Z,13.37
2018-10-09T22:51:15.226Z,12.43
2018-10-09T22:53:45.228Z,12.70
2018-10-09T22:56:16.889Z,11.63
2018-10-09T22:58:47.286Z,15.87
2018-10-09T23:01:16.884Z,13.27
2018-10-09T23:03:46.440Z,12.70
2018-10-09T23:06:15.997Z,12.70
2018-10-09T23:08:45.639Z,12.23
2018-10-09T23:11:15.728Z,12.13
2018-10-09T23:13:45.309Z,11.30
2018-10-09T23:16:14.924Z,12.30
2018-10-09T23:18:44.516Z,12.90
2018-10-09T23:21:14.009Z,13.13
2018-10-09T23:23:43.542Z,14.07
2018-10-09T23:26:13.211Z,15.37
2018-10-09T23:28:42.770Z,14.87
2018-10-09T23:31:12.321Z,12.77
2018-10-09T23:33:41.835Z,13.60
2018-10-09T23:36:11.419Z,12.77
2018-10-09T23:38:40.837Z,12.70
2018-10-09T23:41:10.394Z,14.83
2018-10-09T23:43:40.002Z,13.47
2018-10-09T23:46:09.705Z,14.10
2018-10-09T23:48:39.303Z,13.20
2018-10-09T23:51:08.992Z,13.07
2018-10-09T23:53:38.632Z,13.60
2018-10-09T23:56:08.304Z,13.97
2018-10-09T23:58:38.895Z,12.80
